Time;durP1;ratioP1;P1;durP2;ratioP2;P2;SDS_P1;SDS_P2;PMS_P1;PMS_P2;Temp;Humidity;BMP_temperature;BMP_pressure;BME280_temperature;BME280_humidity;BME280_pressure;Samples;Min_cycle;Max_cycle;Signal;HPM_P1;HPM_P2
2023/11/18 00:01:30;;;;;;;;;;;;;;;17.44;49.79;100510.06;10329830;28;945;-71
2023/11/18 00:06:26;;;;;;;;;;;;;;;17.43;49.59;100517.13;10328512;28;796;-71
2023/11/18 00:11:22;;;;;;;;;;;;;;;17.46;49.64;100522.28;10329298;28;1894;-70
2023/11/18 00:16:18;;;;;;;;;;;;;;;17.44;49.70;100512.69;10328682;28;882;-70
2023/11/18 00:21:14;;;;;;;;;;;;;;;17.42;49.65;100509.25;10328379;28;890;-70
2023/11/18 00:26:10;;;;;;;;;;;;;;;17.43;49.62;100517.13;10329458;28;1030;-71
2023/11/18 00:31:06;;;;;;;;;;;;;;;17.47;49.62;100518.72;10328088;28;1913;-71
2023/11/18 00:36:03;;;;;;;;;;;;;;;17.44;49.62;100516.19;10327797;28;774;-71
2023/11/18 00:41:00;;;;;;;;;;;;;;;17.42;49.76;100519.78;10328316;28;853;-70
2023/11/18 00:45:57;;;;;;;;;;;;;;;17.43;49.51;100521.53;10327409;28;810;-70
2023/11/18 00:50:53;;;;;;;;;;;;;;;17.42;49.56;100514.50;10327079;28;1959;-70
2023/11/18 00:55:49;;;;;;;;;;;;;;;17.40;49.75;100513.72;10326396;28;1031;-70
2023/11/18 01:00:45;;;;;;;;;;;;;;;17.38;49.61;100511.13;10327719;28;817;-70
2023/11/18 01:05:41;;;;;;;;;;;;;;;17.40;49.65;100504.03;10326698;28;795;-70
2023/11/18 01:10:38;;;;;;;;;;;;;;;17.39;49.66;100494.38;10327742;28;1894;-71
2023/11/18 01:15:34;;;;;;;;;;;;;;;17.37;49.76;100496.22;10327180;28;794;-70
2023/11/18 01:20:29;;;;;;;;;;;;;;;17.36;49.78;100498.91;10326827;28;909;-70
2023/11/18 01:25:26;;;;;;;;;;;;;;;17.36;49.74;100488.34;10326642;28;784;-70
2023/11/18 01:30:23;;;;;;;;;;;;;;;17.35;49.71;100498.03;10326364;28;1989;-70
2023/11/18 01:35:19;;;;;;;;;;;;;;;17.33;49.84;100488.44;10325682;28;1188;-71
2023/11/18 01:40:15;;;;;;;;;;;;;;;17.34;49.78;100503.34;10326181;28;854;-71
2023/11/18 01:45:11;;;;;;;;;;;;;;;17.34;49.55;100506.81;10325378;28;896;-71
2023/11/18 01:50:08;;;;;;;;;;;;;;;17.33;49.73;100512.16;10325357;28;1894;-70
2023/11/18 01:55:06;;;;;;;;;;;;;;;17.29;49.71;100519.28;10325395;28;858;-70
2023/11/18 02:00:06;;;;;;;;;;;;;;;17.28;49.57;100523.69;10327600;28;854;-70
2023/11/18 02:05:02;;;;;;;;;;;;;;;17.28;49.63;100509.66;10338728;28;953;-70
2023/11/18 02:09:58;;;;;;;;;;;;;;;17.28;49.66;100505.25;10338691;28;882;-70
2023/11/18 02:14:53;;;;;;;;;;;;;;;17.25;49.68;100497.44;10338673;28;1902;-70
2023/11/18 02:19:49;;;;;;;;;;;;;;;17.21;49.79;100501.09;10338531;28;821;-71
2023/11/18 02:24:45;;;;;;;;;;;;;;;17.20;49.54;100507.25;10339094;28;869;-71
2023/11/18 02:29:42;;;;;;;;;;;;;;;17.18;49.55;100501.16;10337813;28;1247;-70
2023/11/18 02:34:38;;;;;;;;;;;;;;;17.18;49.58;100509.03;10338913;28;1918;-71
2023/11/18 02:39:34;;;;;;;;;;;;;;;17.17;49.61;100504.69;10337886;28;862;-71
2023/11/18 02:44:29;;;;;;;;;;;;;;;17.15;49.67;100493.34;10337930;28;965;-70
2023/11/18 02:49:25;;;;;;;;;;;;;;;17.16;49.72;100484.53;10337953;28;909;-70
2023/11/18 02:54:21;;;;;;;;;;;;;;;17.15;49.61;100495.09;10338431;28;1932;-70
2023/11/18 02:59:17;;;;;;;;;;;;;;;17.13;49.70;100489.03;10338029;28;898;-70
2023/11/18 03:04:14;;;;;;;;;;;;;;;17.14;49.62;100493.41;10338831;28;876;-70
2023/11/18 03:09:10;;;;;;;;;;;;;;;17.13;49.37;100489.88;10337528;28;901;-70
2023/11/18 03:14:09;;;;;;;;;;;;;;;17.14;49.49;100501.31;10332077;28;1952;-71
2023/11/18 03:19:05;;;;;;;;;;;;;;;17.12;49.44;100493.44;10331302;28;879;-71
2023/11/18 03:24:01;;;;;;;;;;;;;;;17.14;49.46;100483.72;10331286;28;912;-71
2023/11/18 03:28:56;;;;;;;;;;;;;;;17.14;49.46;100480.22;10330929;28;1108;-70
2023/11/18 03:33:52;;;;;;;;;;;;;;;17.11;49.60;100456.59;10330366;28;1977;-71
2023/11/18 03:38:49;;;;;;;;;;;;;;;17.09;49.46;100446.09;10330802;28;877;-71
2023/11/18 03:43:47;;;;;;;;;;;;;;;17.10;49.42;100447.81;10330031;28;856;-71
2023/11/18 03:48:44;;;;;;;;;;;;;;;17.11;49.38;100440.78;10329095;28;954;-71
2023/11/18 03:53:40;;;;;;;;;;;;;;;17.06;49.44;100433.88;10330057;28;1894;-71
2023/11/18 03:58:36;;;;;;;;;;;;;;;17.05;49.56;100445.31;10329459;28;941;-71
2023/11/18 04:03:32;;;;;;;;;;;;;;;17.08;49.40;100442.63;10328601;28;962;-71
2023/11/18 04:08:28;;;;;;;;;;;;;;;17.07;49.39;100447.91;10329017;28;768;-71
2023/11/18 04:13:24;;;;;;;;;;;;;;;17.04;49.53;100456.78;10328773;28;1893;-71
2023/11/18 04:18:21;;;;;;;;;;;;;;;17.07;49.41;100461.94;10328654;28;841;-72
2023/11/18 04:23:17;;;;;;;;;;;;;;;17.12;49.29;100463.59;10328471;28;1124;-71
2023/11/18 04:28:12;;;;;;;;;;;;;;;17.15;49.39;100459.09;10328250;28;921;-71
2023/11/18 04:33:08;;;;;;;;;;;;;;;17.26;49.20;100446.44;10327344;28;1914;-71
2023/11/18 04:38:04;;;;;;;;;;;;;;;17.28;48.90;100447.28;10327802;28;835;-71
2023/11/18 04:43:00;;;;;;;;;;;;;;;17.24;49.20;100437.75;10326997;28;956;-71
2023/11/18 04:47:56;;;;;;;;;;;;;;;17.39;49.02;100432.91;10326768;28;1000;-73
2023/11/18 04:52:52;;;;;;;;;;;;;;;17.33;48.99;100431.34;10326551;28;1906;-71
2023/11/18 04:57:48;;;;;;;;;;;;;;;17.33;49.12;100415.53;10327619;28;792;-75
2023/11/18 05:02:47;;;;;;;;;;;;;;;17.40;49.09;100390.72;10327390;28;882;-71
2023/11/18 05:07:43;;;;;;;;;;;;;;;17.48;48.81;100395.75;10326615;28;1572;-71
2023/11/18 05:12:39;;;;;;;;;;;;;;;17.44;49.17;100396.75;10326396;28;1893;-71
2023/11/18 05:17:35;;;;;;;;;;;;;;;17.49;48.93;100381.66;10326234;28;906;-71
2023/11/18 05:22:31;;;;;;;;;;;;;;;17.43;49.33;100364.25;10326802;28;794;-71
2023/11/18 05:27:27;;;;;;;;;;;;;;;17.42;48.97;100364.28;10326064;28;941;-72
2023/11/18 05:32:23;;;;;;;;;;;;;;;17.50;49.04;100367.53;10326460;28;1985;-70
2023/11/18 05:37:19;;;;;;;;;;;;;;;17.48;48.85;100349.16;10324848;28;814;-74
2023/11/18 05:42:15;;;;;;;;;;;;;;;17.51;49.09;100351.69;10325607;28;914;-71
2023/11/18 05:47:11;;;;;;;;;;;;;;;17.49;48.82;100342.97;10326138;28;778;-72
2023/11/18 05:52:07;;;;;;;;;;;;;;;17.53;48.94;100349.03;10325964;28;1894;-71
2023/11/18 05:57:03;;;;;;;;;;;;;;;17.41;49.14;100355.53;10325483;28;825;-70
2023/11/18 06:01:59;;;;;;;;;;;;;;;17.30;49.60;100358.50;10325360;28;782;-72
2023/11/18 06:06:56;;;;;;;;;;;;;;;17.25;49.53;100360.44;10322408;28;1038;-71
2023/11/18 06:11:53;;;;;;;;;;;;;;;17.28;49.30;100370.88;10324792;28;1957;-72
2023/11/18 06:16:50;;;;;;;;;;;;;;;17.27;49.06;100369.16;10325015;28;822;-71
2023/11/18 06:21:46;;;;;;;;;;;;;;;17.24;48.92;100358.72;10325987;28;845;-71
2023/11/18 06:26:42;;;;;;;;;;;;;;;17.27;48.93;100355.97;10324218;28;921;-71
2023/11/18 06:31:37;;;;;;;;;;;;;;;17.26;49.18;100359.50;10324181;28;1981;-73
2023/11/18 06:36:33;;;;;;;;;;;;;;;17.26;49.14;100345.47;10324597;28;791;-72
2023/11/18 06:41:33;;;;;;;;;;;;;;;17.31;49.08;100339.16;10324496;28;859;-72
2023/11/18 06:46:31;;;;;;;;;;;;;;;17.38;48.86;100333.69;10325380;28;1263;-72
2023/11/18 06:51:28;;;;;;;;;;;;;;;17.40;48.91;100350.34;10331825;28;1914;-76
2023/11/18 06:56:23;;;;;;;;;;;;;;;17.38;48.86;100346.88;10331709;28;854;-71
2023/11/18 07:01:19;;;;;;;;;;;;;;;17.45;48.87;100343.16;10331258;28;929;-72
2023/11/18 07:06:15;;;;;;;;;;;;;;;17.48;48.81;100335.13;10331949;28;905;-71
2023/11/18 07:11:11;;;;;;;;;;;;;;;17.51;48.64;100335.03;10331386;28;1898;-71
2023/11/18 07:16:08;;;;;;;;;;;;;;;17.52;48.69;100339.38;10331710;28;980;-71
2023/11/18 07:21:05;;;;;;;;;;;;;;;17.51;48.77;100353.47;10330877;28;937;-71
2023/11/18 07:26:00;;;;;;;;;;;;;;;17.43;48.81;100358.13;10330040;28;1221;-71
2023/11/18 07:30:58;;;;;;;;;;;;;;;17.50;48.49;100359.63;10330149;28;1977;-72
2023/11/18 07:35:54;;;;;;;;;;;;;;;17.51;48.80;100356.09;10330283;28;957;-72
2023/11/18 07:40:52;;;;;;;;;;;;;;;17.49;48.57;100358.78;10330154;28;817;-72
2023/11/18 07:45:52;;;;;;;;;;;;;;;17.45;48.84;100361.59;10329978;28;897;-72
2023/11/18 07:50:48;;;;;;;;;;;;;;;17.41;48.88;100354.69;10329701;28;1897;-72
2023/11/18 07:55:44;;;;;;;;;;;;;;;17.38;48.92;100345.09;10329617;28;929;-72
2023/11/18 08:00:40;;;;;;;;;;;;;;;17.34;48.99;100342.59;10329082;28;815;-71
2023/11/18 08:05:36;;;;;;;;;;;;;;;17.38;48.78;100344.25;10329864;28;866;-72
2023/11/18 08:10:32;;;;;;;;;;;;;;;17.36;48.92;100327.63;10328978;28;1957;-71
2023/11/18 08:15:29;;;;;;;;;;;;;;;17.36;49.05;100325.84;10328820;28;799;-71
2023/11/18 08:20:25;;;;;;;;;;;;;;;17.38;48.84;100333.69;10329413;28;835;-72
2023/11/18 08:25:21;;;;;;;;;;;;;;;17.41;48.81;100338.88;10328603;28;825;-70
2023/11/18 08:30:18;;;;;;;;;;;;;;;17.44;48.87;100349.31;10328494;28;1140;-70
2023/11/18 08:35:14;;;;;;;;;;;;;;;17.39;49.34;100353.84;10327843;28;1914;-70
2023/11/18 08:40:31;;;;;;;;;;;;;;;17.40;48.88;100350.34;10327710;28;897;-69
2023/11/18 08:45:29;;;;;;;;;;;;;;;17.34;48.87;100356.63;10326862;28;1505;-70
2023/11/18 08:50:25;;;;;;;;;;;;;;;17.35;48.81;100357.53;10327892;28;1959;-70
2023/11/18 08:55:21;;;;;;;;;;;;;;;17.34;48.84;100346.09;10327213;28;941;-71
2023/11/18 09:05:35;;;;;;;;;;;;;;;17.48;48.38;100341.25;10326338;28;496;-71
2023/11/18 09:10:31;;;;;;;;;;;;;;;17.46;48.48;100332.53;10326629;28;1894;-70
2023/11/18 09:15:30;;;;;;;;;;;;;;;17.51;48.50;100324.47;10325874;28;855;-70
2023/11/18 09:20:26;;;;;;;;;;;;;;;17.49;48.54;100315.75;10326867;28;879;-70
2023/11/18 09:25:22;;;;;;;;;;;;;;;17.49;48.55;100299.94;10326523;28;862;-70
2023/11/18 09:30:18;;;;;;;;;;;;;;;17.51;48.53;100284.94;10325393;28;1262;-70
2023/11/18 09:35:14;;;;;;;;;;;;;;;17.50;48.39;100296.38;10326503;28;1960;-70
2023/11/18 09:40:13;;;;;;;;;;;;;;;17.50;48.49;100277.94;10326770;28;865;-70
2023/11/18 09:45:14;;;;;;;;;;;;;;;17.54;48.38;100282.19;10326316;28;862;-70
2023/11/18 09:50:10;;;;;;;;;;;;;;;17.52;48.31;100276.97;10325614;28;927;-70
2023/11/18 09:55:14;;;;;;;;;;;;;;;17.53;48.29;100269.94;10325968;28;1890;-70
2023/11/18 10:00:32;;;;;;;;;;;;;;;17.56;48.37;100267.22;10325395;28;834;-70
2023/11/18 10:05:30;;;;;;;;;;;;;;;17.55;48.39;100267.25;10326083;28;878;-70
2023/11/18 10:10:35;;;;;;;;;;;;;;;17.57;48.10;100268.91;10325031;28;1955;-70
2023/11/18 10:15:31;;;;;;;;;;;;;;;17.56;48.43;100269.84;10325130;28;842;-70
2023/11/18 10:20:27;;;;;;;;;;;;;;;17.56;48.58;100261.94;10325587;28;818;-70
2023/11/18 10:25:23;;;;;;;;;;;;;;;17.58;48.34;100265.38;10333758;28;869;-70
2023/11/18 10:30:21;;;;;;;;;;;;;;;17.57;48.37;100245.19;10333484;28;1109;-70
2023/11/18 10:35:20;;;;;;;;;;;;;;;17.55;48.37;100222.44;10333259;28;1973;-70
2023/11/18 10:40:15;;;;;;;;;;;;;;;17.59;48.47;100222.28;10333189;28;1064;-70
2023/11/18 10:45:12;;;;;;;;;;;;;;;17.58;48.55;100207.41;10332235;28;1039;-70
2023/11/18 10:50:12;;;;;;;;;;;;;;;17.57;48.49;100199.53;10332659;28;881;-70
2023/11/18 10:55:11;;;;;;;;;;;;;;;17.59;48.51;100200.34;10331816;28;1894;-70
2023/11/18 11:00:13;;;;;;;;;;;;;;;17.60;48.48;100187.09;10331169;28;850;-70
2023/11/18 11:05:15;;;;;;;;;;;;;;;17.57;48.69;100166.13;10331678;28;1067;-70
2023/11/18 11:10:13;;;;;;;;;;;;;;;17.59;48.49;100145.84;10331336;28;869;-70
2023/11/18 11:15:13;;;;;;;;;;;;;;;17.57;48.62;100125.72;10331082;28;1897;-70
2023/11/18 11:20:17;;;;;;;;;;;;;;;17.57;48.63;100131.00;10331556;28;875;-70
2023/11/18 11:25:21;;;;;;;;;;;;;;;17.60;48.48;100115.06;10331827;28;794;-70
2023/11/18 11:30:18;;;;;;;;;;;;;;;17.57;48.46;100113.41;10330809;28;1089;-70
2023/11/18 11:35:18;;;;;;;;;;;;;;;17.58;48.36;100098.44;10329082;28;1975;-70
2023/11/18 11:40:21;;;;;;;;;;;;;;;17.57;48.53;100102.84;10330213;28;912;-70
2023/11/18 11:45:22;;;;;;;;;;;;;;;17.54;48.68;100105.63;10330275;28;833;-70
2023/11/18 11:50:21;;;;;;;;;;;;;;;17.59;48.26;100106.31;10330490;28;834;-70
2023/11/18 11:55:19;;;;;;;;;;;;;;;17.58;48.58;100111.63;10330229;28;1898;-70
2023/11/18 12:00:15;;;;;;;;;;;;;;;17.57;48.49;100107.28;10329474;28;906;-70
2023/11/18 12:05:18;;;;;;;;;;;;;;;17.58;48.49;100095.81;10329901;28;838;-70
2023/11/18 12:10:20;;;;;;;;;;;;;;;17.57;48.32;100096.72;10329900;28;873;-70
2023/11/18 12:15:19;;;;;;;;;;;;;;;17.54;48.61;100102.97;10329727;28;1898;-70
2023/11/18 12:20:18;;;;;;;;;;;;;;;17.60;48.57;100108.00;10328623;28;893;-70
2023/11/18 12:25:14;;;;;;;;;;;;;;;17.58;48.34;100106.34;10329056;28;857;-70
2023/11/18 12:30:10;;;;;;;;;;;;;;;17.58;48.54;100103.72;10328391;28;1231;-70
2023/11/18 12:35:16;;;;;;;;;;;;;;;17.59;48.53;100098.41;10328150;28;1898;-70
2023/11/18 12:40:13;;;;;;;;;;;;;;;17.58;48.42;100091.41;10328622;28;846;-70
2023/11/18 12:45:10;;;;;;;;;;;;;;;17.55;48.44;100077.47;10327196;28;881;-70
2023/11/18 12:50:16;;;;;;;;;;;;;;;17.59;48.31;100052.72;10327987;28;861;-70
2023/11/18 12:55:18;;;;;;;;;;;;;;;17.56;48.35;100037.91;10327929;28;1889;-70
2023/11/18 13:00:17;;;;;;;;;;;;;;;17.54;48.46;100029.19;10327745;28;802;-71
2023/11/18 13:05:13;;;;;;;;;;;;;;;17.57;48.44;100034.31;10326895;28;791;-70
2023/11/18 13:10:09;;;;;;;;;;;;;;;17.59;48.40;100021.97;10327222;28;803;-70
2023/11/18 13:15:08;;;;;;;;;;;;;;;17.58;48.43;100014.97;10327135;28;1953;-70
2023/11/18 13:20:05;;;;;;;;;;;;;;;17.59;48.43;100005.28;10326359;28;1005;-70
2023/11/18 13:25:03;;;;;;;;;;;;;;;17.58;48.31;99983.34;10326173;28;935;-70
2023/11/18 13:29:59;;;;;;;;;;;;;;;17.57;48.57;99972.84;10326730;28;1137;-70
2023/11/18 13:34:55;;;;;;;;;;;;;;;17.61;48.38;99982.38;10326014;28;1910;-70
2023/11/18 13:39:51;;;;;;;;;;;;;;;17.60;48.44;99972.72;10325847;28;809;-70
2023/11/18 13:44:49;;;;;;;;;;;;;;;17.58;48.63;99951.72;10325985;28;1069;-70
2023/11/18 13:49:45;;;;;;;;;;;;;;;17.60;48.42;99926.13;10325133;28;784;-70
2023/11/18 13:54:44;;;;;;;;;;;;;;;17.61;48.54;99913.84;10325946;28;1983;-70
2023/11/18 13:59:44;;;;;;;;;;;;;;;17.58;48.67;99904.28;10324676;28;874;-70
2023/11/18 14:04:43;;;;;;;;;;;;;;;17.60;48.48;99877.84;10325226;28;892;-70
2023/11/18 14:09:40;;;;;;;;;;;;;;;17.60;48.63;99865.50;10325769;28;845;-70
2023/11/18 14:14:37;;;;;;;;;;;;;;;17.62;48.42;99866.31;10325010;28;1914;-70
2023/11/18 14:19:35;;;;;;;;;;;;;;;17.61;48.73;99837.41;10325584;28;826;-70
2023/11/18 14:24:31;;;;;;;;;;;;;;;17.60;48.68;99825.97;10324931;28;932;-70
2023/11/18 14:29:27;;;;;;;;;;;;;;;17.60;48.61;99823.34;10324499;28;1251;-70
2023/11/18 14:34:24;;;;;;;;;;;;;;;17.63;48.39;99802.16;10325303;28;1957;-70
2023/11/18 14:39:22;;;;;;;;;;;;;;;17.60;48.57;99786.44;10325052;28;838;-70
2023/11/18 14:44:18;;;;;;;;;;;;;;;17.61;48.57;99772.38;10324525;28;787;-70
2023/11/18 14:49:14;;;;;;;;;;;;;;;17.64;48.46;99769.59;10325025;28;874;-70
2023/11/18 14:54:10;;;;;;;;;;;;;;;17.62;48.62;99760.03;10324810;28;1947;-70
2023/11/18 14:59:07;;;;;;;;;;;;;;;17.62;48.63;99760.88;10324153;28;913;-70
2023/11/18 15:04:05;;;;;;;;;;;;;;;17.64;48.72;99766.97;10324241;28;1562;-70
2023/11/18 15:09:03;;;;;;;;;;;;;;;17.64;48.72;99761.69;10327743;28;882;-70
2023/11/18 15:13:59;;;;;;;;;;;;;;;17.64;48.60;99742.38;10331403;28;1939;-70
2023/11/18 15:18:56;;;;;;;;;;;;;;;17.63;48.48;99720.44;10330561;28;995;-70
2023/11/18 15:23:52;;;;;;;;;;;;;;;17.60;48.75;99707.38;10330807;28;877;-70
2023/11/18 15:28:49;;;;;;;;;;;;;;;17.64;48.61;99674.69;10331372;28;1581;-70
2023/11/18 15:33:45;;;;;;;;;;;;;;;17.63;48.72;99640.50;10330865;28;1905;-70
2023/11/18 15:38:41;;;;;;;;;;;;;;;17.63;48.78;99638.75;10330325;28;953;-70
2023/11/18 15:43:37;;;;;;;;;;;;;;;17.62;48.74;99602.75;10330211;28;770;-70
2023/11/18 15:48:34;;;;;;;;;;;;;;;17.65;48.73;99592.06;10329982;28;905;-70
2023/11/18 15:53:30;;;;;;;;;;;;;;;17.64;48.54;99587.72;10330293;28;1941;-70
2023/11/18 15:58:28;;;;;;;;;;;;;;;17.64;48.53;99590.34;10329201;28;787;-70
2023/11/18 16:03:24;;;;;;;;;;;;;;;17.63;48.71;99580.75;10329399;28;838;-70
2023/11/18 16:08:20;;;;;;;;;;;;;;;17.61;48.57;99547.47;10329451;28;893;-70
2023/11/18 16:13:16;;;;;;;;;;;;;;;17.63;48.68;99556.16;10329578;28;1957;-70
2023/11/18 16:18:12;;;;;;;;;;;;;;;17.65;48.53;99563.06;10328606;28;830;-70
2023/11/18 16:23:09;;;;;;;;;;;;;;;17.63;48.59;99548.25;10327605;28;1235;-70
2023/11/18 16:28:07;;;;;;;;;;;;;;;17.62;48.60;99521.03;10329273;28;877;-70
2023/11/18 16:33:07;;;;;;;;;;;;;;;17.65;48.47;99496.31;10329022;28;1898;-70
2023/11/18 16:38:03;;;;;;;;;;;;;;;17.63;48.62;99496.41;10327922;28;877;-67
2023/11/18 16:42:59;;;;;;;;;;;;;;;17.45;49.09;99489.34;10327824;28;829;-68
2023/11/18 16:47:55;;;;;;;;;;;;;;;17.46;48.99;99494.53;10328190;28;881;-68
2023/11/18 16:52:51;;;;;;;;;;;;;;;17.41;48.96;99478.09;10328109;28;1943;-67
2023/11/18 16:57:47;;;;;;;;;;;;;;;17.46;48.59;99456.81;10327420;28;806;-68
2023/11/18 17:02:42;;;;;;;;;;;;;;;17.42;48.81;99456.09;10327119;28;785;-67
2023/11/18 17:07:38;;;;;;;;;;;;;;;17.43;48.90;99427.97;10326949;28;879;-67
2023/11/18 17:12:35;;;;;;;;;;;;;;;17.44;48.91;99427.88;10327213;28;1910;-68
2023/11/18 17:17:31;;;;;;;;;;;;;;;17.47;48.87;99421.59;10326519;28;871;-67
2023/11/18 17:22:27;;;;;;;;;;;;;;;17.50;49.05;99422.34;10326346;28;905;-71
2023/11/18 17:27:24;;;;;;;;;;;;;;;17.62;48.74;99427.94;10326820;28;786;-71
2023/11/18 17:32:20;;;;;;;;;;;;;;;17.64;48.86;99408.50;10325008;28;1992;-71
2023/11/18 17:37:16;;;;;;;;;;;;;;;17.63;48.83;99395.38;10325933;28;833;-71
2023/11/18 17:42:11;;;;;;;;;;;;;;;17.66;48.78;99406.66;10326395;28;845;-71
2023/11/18 17:47:09;;;;;;;;;;;;;;;17.68;48.83;99410.06;10325696;28;806;-71
2023/11/18 17:52:05;;;;;;;;;;;;;;;17.68;48.85;99383.72;10325480;28;1889;-71
2023/11/18 17:57:00;;;;;;;;;;;;;;;17.71;48.97;99388.84;10326118;28;890;-71
2023/11/18 18:01:57;;;;;;;;;;;;;;;17.68;48.99;99362.63;10326012;28;863;-71
2023/11/18 18:06:52;;;;;;;;;;;;;;;17.65;49.01;99370.66;10325246;28;1047;-71
2023/11/18 18:11:48;;;;;;;;;;;;;;;17.62;49.03;99376.09;10325119;28;1894;-71
2023/11/18 18:16:44;;;;;;;;;;;;;;;17.60;49.02;99364.75;10324450;28;1120;-71
2023/11/18 18:21:40;;;;;;;;;;;;;;;17.56;49.17;99352.66;10324959;28;777;-71
2023/11/18 18:26:36;;;;;;;;;;;;;;;17.59;49.04;99349.03;10324433;28;996;-71
2023/11/18 18:31:32;;;;;;;;;;;;;;;17.60;49.04;99356.84;10324954;28;1968;-71
2023/11/18 18:36:28;;;;;;;;;;;;;;;17.59;48.92;99335.84;10325338;28;833;-71
2023/11/18 18:41:24;;;;;;;;;;;;;;;17.61;48.95;99336.66;10324621;28;940;-71
2023/11/18 18:46:20;;;;;;;;;;;;;;;17.59;49.04;99339.34;10332110;28;901;-70
2023/11/18 18:51:16;;;;;;;;;;;;;;;17.60;48.76;99312.03;10332158;28;1981;-71
2023/11/18 18:56:12;;;;;;;;;;;;;;;17.64;48.85;99281.13;10331447;28;944;-71
2023/11/18 19:01:08;;;;;;;;;;;;;;;17.64;48.81;99281.13;10332431;28;838;-70
2023/11/18 19:06:04;;;;;;;;;;;;;;;17.65;48.81;99267.88;10332279;28;889;-70
2023/11/18 19:11:00;;;;;;;;;;;;;;;17.68;48.98;99283.56;10331411;28;1956;-70
2023/11/18 19:15:55;;;;;;;;;;;;;;;17.66;48.76;99277.50;10331278;28;903;-71
2023/11/18 19:20:51;;;;;;;;;;;;;;;17.67;48.56;99284.47;10331670;28;877;-71
2023/11/18 19:25:47;;;;;;;;;;;;;;;17.72;48.63;99289.50;10330327;28;850;-71
2023/11/18 19:30:43;;;;;;;;;;;;;;;17.65;48.64;99307.41;10331150;28;1918;-71
2023/11/18 19:35:39;;;;;;;;;;;;;;;17.68;48.45;99283.56;10330947;28;1558;-71
2023/11/18 19:40:35;;;;;;;;;;;;;;;17.69;48.60;99293.16;10330333;28;972;-70
2023/11/18 19:45:31;;;;;;;;;;;;;;;17.68;48.54;99283.56;10330816;28;864;-70
2023/11/18 19:50:27;;;;;;;;;;;;;;;17.70;48.55;99275.56;10330744;28;859;-70
2023/11/18 19:55:23;;;;;;;;;;;;;;;17.71;48.62;99254.41;10327988;28;1949;-70
2023/11/18 20:00:22;;;;;;;;;;;;;;;17.70;48.67;99259.72;10330243;28;862;-71
2023/11/18 20:05:19;;;;;;;;;;;;;;;17.70;48.77;99228.09;10329968;28;869;-70
2023/11/18 20:10:15;;;;;;;;;;;;;;;17.69;48.56;99242.22;10329243;28;846;-71
2023/11/18 20:15:11;;;;;;;;;;;;;;;17.68;48.71;99217.66;10328961;28;1953;-71
2023/11/18 20:20:08;;;;;;;;;;;;;;;17.70;48.74;99231.59;10329928;28;830;-71
2023/11/18 20:25:06;;;;;;;;;;;;;;;17.73;48.52;99217.41;10329403;28;798;-71
2023/11/18 20:30:04;;;;;;;;;;;;;;;17.70;48.58;99220.19;10327928;28;1471;-70
2023/11/18 20:35:00;;;;;;;;;;;;;;;17.68;48.56;99241.38;10328466;28;1973;-71
2023/11/18 20:39:56;;;;;;;;;;;;;;;17.64;48.81;99221.38;10328119;28;774;-70
2023/11/18 20:44:52;;;;;;;;;;;;;;;17.66;48.65;99205.50;10328481;28;902;-71
2023/11/18 20:49:48;;;;;;;;;;;;;;;17.63;48.74;99198.59;10327600;28;778;-71
2023/11/18 20:54:44;;;;;;;;;;;;;;;17.62;48.75;99203.94;10326837;28;1910;-71
2023/11/18 20:59:40;;;;;;;;;;;;;;;17.59;48.85;99183.84;10326585;28;1159;-71
2023/11/18 21:04:36;;;;;;;;;;;;;;;17.62;48.81;99185.47;10326787;28;838;-70
2023/11/18 21:09:32;;;;;;;;;;;;;;;17.58;48.93;99192.72;10327477;28;865;-71
2023/11/18 21:14:27;;;;;;;;;;;;;;;17.56;48.98;99189.28;10327192;28;1961;-71
2023/11/18 21:19:23;;;;;;;;;;;;;;;17.56;48.84;99181.38;10326519;28;965;-71
2023/11/18 21:24:19;;;;;;;;;;;;;;;17.59;48.83;99175.09;10326361;28;944;-71
2023/11/18 21:29:17;;;;;;;;;;;;;;;17.55;48.78;99177.03;10326650;28;1241;-71
2023/11/18 21:34:13;;;;;;;;;;;;;;;17.51;49.15;99170.22;10326007;28;1981;-71
2023/11/18 21:39:13;;;;;;;;;;;;;;;17.50;48.96;99164.09;10326093;28;825;-71
2023/11/18 21:44:09;;;;;;;;;;;;;;;17.49;48.91;99151.00;10325738;28;956;-71
2023/11/18 21:49:11;;;;;;;;;;;;;;;17.47;48.96;99160.75;10325705;28;960;-71
2023/11/18 21:54:07;;;;;;;;;;;;;;;17.45;49.08;99154.75;10325097;28;1955;-70
2023/11/18 21:59:03;;;;;;;;;;;;;;;17.43;49.20;99153.97;10325417;28;917;-70
2023/11/18 22:03:59;;;;;;;;;;;;;;;17.41;49.35;99140.00;10325499;28;797;-71
2023/11/18 22:08:57;;;;;;;;;;;;;;;17.39;49.13;99155.03;10325298;28;763;-70
2023/11/18 22:13:53;;;;;;;;;;;;;;;17.38;49.26;99140.16;10325135;28;1957;-70
2023/11/18 22:18:51;;;;;;;;;;;;;;;17.36;49.34;99121.81;10330269;28;900;-70
2023/11/18 22:23:48;;;;;;;;;;;;;;;17.35;49.43;99128.00;10333525;28;857;-70
2023/11/18 22:28:44;;;;;;;;;;;;;;;17.31;49.34;99132.56;10332942;28;1178;-70
2023/11/18 22:33:40;;;;;;;;;;;;;;;17.30;49.52;99133.50;10333230;28;1918;-70
2023/11/18 22:38:37;;;;;;;;;;;;;;;17.29;49.45;99129.19;10333438;28;851;-71
2023/11/18 22:43:33;;;;;;;;;;;;;;;17.29;49.46;99112.50;10333248;28;786;-70
2023/11/18 22:48:29;;;;;;;;;;;;;;;17.27;49.54;99112.59;10333641;28;906;-71
2023/11/18 22:53:25;;;;;;;;;;;;;;;17.27;49.58;99115.22;10332734;28;1897;-70
2023/11/18 22:58:21;;;;;;;;;;;;;;;17.29;49.53;99108.09;10332046;28;879;-71
2023/11/18 23:03:17;;;;;;;;;;;;;;;17.25;49.47;99106.53;10332460;28;948;-70
2023/11/18 23:08:16;;;;;;;;;;;;;;;17.28;49.41;99111.66;10332278;28;938;-70
2023/11/18 23:13:12;;;;;;;;;;;;;;;17.27;49.39;99082.78;10332360;28;1956;-70
2023/11/18 23:18:09;;;;;;;;;;;;;;;17.28;49.48;99106.38;10330939;28;1295;-71
2023/11/18 23:23:05;;;;;;;;;;;;;;;17.30;49.53;99098.41;10331025;28;984;-70
2023/11/18 23:28:01;;;;;;;;;;;;;;;17.27;49.54;99094.16;10330646;28;893;-71
2023/11/18 23:32:57;;;;;;;;;;;;;;;17.26;49.61;99081.91;10330653;28;1981;-70
2023/11/18 23:37:53;;;;;;;;;;;;;;;17.28;49.47;99074.78;10331149;28;861;-70
2023/11/18 23:42:50;;;;;;;;;;;;;;;17.27;49.37;99065.19;10330919;28;886;-71
2023/11/18 23:47:49;;;;;;;;;;;;;;;17.22;49.62;99072.47;10330121;28;961;-70
2023/11/18 23:52:45;;;;;;;;;;;;;;;17.18;49.55;99056.91;10330387;28;1898;-70
2023/11/18 23:57:41;;;;;;;;;;;;;;;17.15;49.56;99044.75;10329848;28;807;-70
